createdAt,value
2023-04-27T00:05:21.562Z,6.6
2023-04-27T00:11:13.917Z,6.4
2023-04-27T00:17:05.104Z,6.3
2023-04-27T00:22:56.582Z,6.1
2023-04-27T00:28:32.994Z,5.9
2023-04-27T00:34:24.433Z,5.8
2023-04-27T00:40:14.854Z,5.5
2023-04-27T00:46:08.275Z,5.4
2023-04-27T00:51:59.961Z,5.3
2023-04-27T00:57:50.593Z,5.1
2023-04-27T01:03:28.108Z,5
2023-04-27T01:09:20.871Z,4.9
2023-04-27T01:15:12.069Z,4.7
2023-04-27T01:21:04.488Z,4.6
2023-04-27T01:26:57.486Z,4.5
2023-04-27T01:32:49.376Z,4.4
2023-04-27T01:38:41.910Z,4.3
2023-04-27T01:44:33.584Z,4.2
2023-04-27T01:50:25.013Z,4.1
2023-04-27T01:56:16.608Z,4.1
2023-04-27T02:02:07.310Z,3.9
2023-04-27T02:07:44.859Z,3.9
2023-04-27T02:13:21.602Z,3.8
2023-04-27T02:19:13.664Z,3.7
2023-04-27T02:25:04.802Z,3.6
2023-04-27T02:31:02.211Z,3.6
2023-04-27T02:36:54.325Z,3.5
2023-04-27T02:42:44.793Z,3.4
2023-04-27T02:48:21.364Z,3.4
2023-04-27T02:54:12.995Z,3.3
2023-04-27T03:00:04.631Z,3.3
2023-04-27T03:05:58.996Z,3.2
2023-04-27T03:11:53.181Z,3.1
2023-04-27T03:17:44.475Z,3.1
2023-04-27T03:23:36.359Z,3.1
2023-04-27T03:29:12.257Z,3
2023-04-27T03:34:48.334Z,3
2023-04-27T03:40:24.922Z,3
2023-04-27T03:46:16.844Z,2.9
2023-04-27T03:52:07.226Z,2.9
2023-04-27T03:57:59.243Z,2.8
2023-04-27T04:03:52.160Z,2.8
2023-04-27T04:09:44.061Z,2.8
2023-04-27T04:15:35.592Z,2.8
2023-04-27T04:21:26.739Z,2.8
2023-04-27T04:27:18.683Z,2.9
2023-04-27T04:32:55.747Z,3.1
2023-04-27T04:38:31.928Z,3.3
2023-04-27T04:44:10.801Z,3.7
2023-04-27T04:50:05.571Z,4.4
2023-04-27T04:55:57.150Z,5.5
2023-04-27T05:01:50.459Z,6.8
2023-04-27T05:07:47.730Z,8.1
2023-04-27T05:13:40.864Z,9.1
2023-04-27T05:19:32.603Z,10
2023-04-27T05:25:09.869Z,10.8
2023-04-27T05:31:01.373Z,11.8
2023-04-27T05:36:52.645Z,12.8
2023-04-27T05:42:13.990Z,13.7
2023-04-27T05:47:50.785Z,14.4
2023-04-27T05:53:27.094Z,14.9
2023-04-27T05:58:56.959Z,15.4
2023-04-27T06:04:35.283Z,16.4
2023-04-27T06:10:12.977Z,17.8
2023-04-27T06:15:49.239Z,19.3
2023-04-27T06:27:17.820Z,21.9
2023-04-27T06:33:09.702Z,22.2
2023-04-27T06:39:03.112Z,22.3
2023-04-27T06:44:54.744Z,22
2023-04-27T06:50:46.911Z,23.6
2023-04-27T06:56:41.185Z,30.4
2023-04-27T07:02:32.179Z,39.6
2023-04-27T07:08:26.227Z,37.2
2023-04-27T07:14:29.339Z,33.3
2023-04-27T07:20:20.329Z,35.4
2023-04-27T07:26:13.915Z,37.3
2023-04-27T07:32:18.533Z,38.9
2023-04-27T07:38:25.535Z,39.9
2023-04-27T07:44:17.797Z,41.5
2023-04-27T07:50:09.882Z,42.7
2023-04-27T07:56:01.351Z,44.3
2023-04-27T08:01:59.409Z,45.2
2023-04-27T08:07:57.467Z,46.6
2023-04-27T08:13:33.063Z,48.3
2023-04-27T08:19:09.645Z,49.1
2023-04-27T08:23:59.683Z,50.1
2023-04-27T08:29:33.042Z,51.2
2023-04-27T08:34:39.725Z,52.2
2023-04-27T08:40:00.392Z,52.3
2023-04-27T08:45:35.728Z,53.2
2023-04-27T08:51:07.242Z,53.1
2023-04-27T08:57:01.221Z,52.2
2023-04-27T09:02:54.538Z,48.4
2023-04-27T09:09:00.208Z,49.4
2023-04-27T09:14:51.210Z,50.1
2023-04-27T09:20:26.906Z,50.2
2023-04-27T09:25:47.891Z,48.5
2023-04-27T09:31:39.487Z,49.6
2023-04-27T09:37:31.775Z,40.1
2023-04-27T09:43:22.916Z,42.8
2023-04-27T09:54:51.957Z,46.9
2023-04-27T10:00:43.739Z,47.1
2023-04-27T10:07:06.456Z,47.4
2023-04-27T10:12:57.587Z,58.8
2023-04-27T10:18:49.400Z,57.8
2023-04-27T10:24:43.393Z,52.3
2023-04-27T10:30:36.179Z,43.7
2023-04-27T10:36:27.761Z,51.9
2023-04-27T10:42:34.859Z,49.8
2023-04-27T10:48:25.772Z,51.1
2023-04-27T10:54:02.454Z,44.9
2023-04-27T11:00:02.477Z,49.2
2023-04-27T11:05:39.747Z,46.5
2023-04-27T11:11:17.598Z,44.3
2023-04-27T11:17:09.076Z,44.3
2023-04-27T11:23:00.176Z,44.9
2023-04-27T11:28:52.046Z,43.3
2023-04-27T11:34:31.223Z,46.4
2023-04-27T11:40:04.112Z,46.9
2023-04-27T11:45:42.621Z,45.1
2023-04-27T11:51:03.961Z,43.1
2023-04-27T11:56:27.447Z,41.8
2023-04-27T12:01:55.785Z,45.9
2023-04-27T12:07:45.064Z,57.3
2023-04-27T12:13:21.278Z,54.5
2023-04-27T12:18:43.200Z,43.1
2023-04-27T12:24:34.726Z,41.8
2023-04-27T12:29:58.048Z,44.9
2023-04-27T12:35:50.668Z,45.6
2023-04-27T12:41:42.380Z,48.4
2023-04-27T12:48:01.524Z,47.6
2023-04-27T12:53:54.146Z,46.9
2023-04-27T13:00:01.873Z,48.4
2023-04-27T13:05:55.910Z,46.9
2023-04-27T13:11:47.822Z,47.9
2023-04-27T13:17:42.331Z,49.2
2023-04-27T13:23:37.804Z,53.6
2023-04-27T13:29:30.438Z,46.1
2023-04-27T13:35:36.718Z,39.3
2023-04-27T13:41:28.045Z,37.4
2023-04-27T13:47:20.475Z,37.1
2023-04-27T13:52:57.202Z,35.4
2023-04-27T13:58:47.992Z,34.4
2023-04-27T14:04:41.894Z,33
2023-04-27T14:10:33.693Z,32.3
2023-04-27T14:16:42.854Z,33.8
2023-04-27T14:22:45.881Z,32.7
2023-04-27T14:28:37.689Z,32.7
2023-04-27T14:34:28.539Z,31.4
2023-04-27T14:40:20.878Z,29.6
2023-04-27T14:46:37.711Z,28.3
2023-04-27T14:52:29.373Z,28.3
2023-04-27T14:58:20.906Z,29.1
2023-04-27T15:04:14.096Z,29.4
2023-04-27T15:10:05.724Z,29
2023-04-27T15:15:58.259Z,27.8
2023-04-27T15:21:50.464Z,26.1
2023-04-27T15:27:44.011Z,24.9
2023-04-27T15:33:36.692Z,23.9
2023-04-27T15:39:27.768Z,23.1
2023-04-27T15:45:19.889Z,22.4
2023-04-27T15:51:10.209Z,21.7
2023-04-27T15:57:04.096Z,20.9
2023-04-27T16:02:56.699Z,20.2
2023-04-27T16:08:49.406Z,19.4
2023-04-27T16:20:20.595Z,18
2023-04-27T16:26:12.606Z,17.3
2023-04-27T16:32:04.194Z,16.6
2023-04-27T16:37:55.660Z,16
2023-04-27T16:43:32.847Z,15.5
2023-04-27T16:49:24.960Z,14.9
2023-04-27T16:55:16.828Z,14.4
2023-04-27T17:00:53.407Z,14
2023-04-27T17:06:58.897Z,13.5
2023-04-27T17:12:51.865Z,13.1
2023-04-27T17:18:43.939Z,12.7
2023-04-27T17:24:38.922Z,12.3
2023-04-27T17:30:31.897Z,11.9
2023-04-27T17:36:27.442Z,11.6
2023-04-27T17:42:19.335Z,11.3
2023-04-27T17:48:10.807Z,10.9
2023-04-27T17:54:02.978Z,10.6
2023-04-27T17:59:39.906Z,10.3
2023-04-27T18:05:18.355Z,10.1
2023-04-27T18:10:41.608Z,9.9
2023-04-27T18:16:21.088Z,9.7
2023-04-27T18:22:27.332Z,9.5
2023-04-27T18:28:21.361Z,9.3
2023-04-27T18:34:13.796Z,9.1
2023-04-27T18:40:05.582Z,8.9
2023-04-27T18:45:57.590Z,8.7
2023-04-27T18:51:34.663Z,8.6
2023-04-27T18:57:26.513Z,8.4
2023-04-27T19:03:20.194Z,8.3
2023-04-27T19:09:32.336Z,8.1
2023-04-27T19:15:29.253Z,8
2023-04-27T19:21:32.721Z,7.8
2023-04-27T19:27:42.085Z,7.7
2023-04-27T19:33:37.882Z,7.5
2023-04-27T19:39:34.255Z,7.3
2023-04-27T19:45:12.186Z,7.1
2023-04-27T19:51:05.738Z,6.8
2023-04-27T19:56:59.451Z,6.6
2023-04-27T20:02:52.668Z,6.5
2023-04-27T20:08:50.692Z,6.3
2023-04-27T20:14:59.844Z,6.1
2023-04-27T20:20:37.984Z,5.9
2023-04-27T20:26:18.359Z,5.9
2023-04-27T20:32:11.729Z,5.8
2023-04-27T20:38:17.747Z,5.7
2023-04-27T20:44:11.417Z,5.6
2023-04-27T20:49:42.013Z,5.5
2023-04-27T20:55:38.349Z,5.4
2023-04-27T21:01:30.792Z,5.4
2023-04-27T21:07:24.573Z,5.3
2023-04-27T21:13:18.833Z,5.2
2023-04-27T21:19:25.102Z,5.1
2023-04-27T21:25:25.295Z,4.9
2023-04-27T21:31:18.737Z,4.7
2023-04-27T21:37:12.193Z,4.5
2023-04-27T21:43:03.953Z,4.3
2023-04-27T21:48:55.807Z,4.1
2023-04-27T21:54:32.422Z,4
2023-04-27T22:00:27.363Z,3.9
2023-04-27T22:06:20.739Z,3.8
2023-04-27T22:11:43.665Z,3.8
2023-04-27T22:17:47.848Z,3.7
2023-04-27T22:23:39.486Z,3.6
2023-04-27T22:29:44.855Z,3.6
2023-04-27T22:35:44.536Z,3.6
2023-04-27T22:41:35.621Z,3.5
2023-04-27T22:47:26.637Z,3.4
2023-04-27T22:53:17.366Z,3.4
2023-04-27T22:59:08.591Z,3.3
2023-04-27T23:05:01.249Z,3.3
2023-04-27T23:10:53.058Z,3.2
2023-04-27T23:16:44.876Z,3.1
2023-04-27T23:22:42.823Z,3
2023-04-27T23:28:34.477Z,2.9
2023-04-27T23:34:26.506Z,2.9
2023-04-27T23:40:02.273Z,2.9
2023-04-27T23:45:37.971Z,2.9
2023-04-27T23:51:29.677Z,2.8
2023-04-27T23:57:05.969Z,2.8
